Time;durP1;ratioP1;P1;durP2;ratioP2;P2;SDS_P1;SDS_P2;PMS_P1;PMS_P2;Temp;Humidity;BMP_temperature;BMP_pressure;BME280_temperature;BME280_humidity;BME280_pressure;Samples;Min_cycle;Max_cycle;Signal;HPM_P1;HPM_P2
2020/12/06 00:00:36;;;;;;;9.93;3.80;;;;;;;-7.38;59.93;102163.36;1722858;82;21173;-78
2020/12/06 00:03:04;;;;;;;;;;;;;;;-7.37;60.18;102159.77;1716967;81;21121;-78
2020/12/06 00:05:34;;;;;;;11.47;4.03;;;;;;;-7.38;60.27;102159.37;1714401;81;20168;-76
2020/12/06 00:08:02;;;;;;;12.88;4.40;;;;;;;-7.41;60.27;102156.88;1710831;83;21250;-77
2020/12/06 00:10:30;;;;;;;11.90;4.40;;;;;;;-7.48;60.45;102154.19;1715058;83;21195;-76
2020/12/06 00:12:58;;;;;;;11.45;3.62;;;;;;;-7.51;60.08;102158.84;1713550;81;21187;-77
2020/12/06 00:15:26;;;;;;;11.40;3.77;;;;;;;-7.56;60.37;102155.09;1717285;81;21176;-75
2020/12/06 00:17:53;;;;;;;10.00;4.00;;;;;;;-7.59;60.26;102155.29;1687588;82;21178;-74
2020/12/06 00:20:21;;;;;;;9.83;3.62;;;;;;;-7.63;60.61;102155.05;1719620;81;21153;-76
2020/12/06 00:22:50;;;;;;;10.93;3.58;;;;;;;-7.61;60.63;102153.66;1716050;81;21201;-74
2020/12/06 00:25:18;;;;;;;11.97;4.40;;;;;;;-7.65;61.11;102152.97;1729124;81;21221;-84
2020/12/06 00:27:46;;;;;;;10.70;4.03;;;;;;;-7.68;61.10;102161.56;1722616;83;21147;-85
2020/12/06 00:30:14;;;;;;;12.85;3.80;;;;;;;-7.73;61.31;102156.52;1720258;81;21306;-73
2020/12/06 00:32:41;;;;;;;10.58;3.80;;;;;;;-7.76;61.72;102161.99;1714661;81;21140;-73
2020/12/06 00:35:10;;;;;;;10.40;4.27;;;;;;;-7.76;61.60;102163.33;1711751;81;21170;-75
2020/12/06 00:37:39;;;;;;;10.48;3.80;;;;;;;-7.80;61.61;102163.13;1677797;85;21207;-74
2020/12/06 00:40:08;;;;;;;10.23;4.10;;;;;;;-7.83;61.88;102165.94;1688179;83;21204;-74
2020/12/06 00:42:36;;;;;;;12.93;3.95;;;;;;;-7.87;62.30;102167.06;1697631;83;21140;-89
2020/12/06 00:45:09;;;;;;;12.83;3.87;;;;;;;-7.88;62.16;102164.01;1714281;82;21168;-84
2020/12/06 00:47:37;;;;;;;11.77;4.07;;;;;;;-7.93;62.14;102160.75;1713377;83;21164;-82
2020/12/06 00:50:05;;;;;;;;;;;;;;;-7.95;61.92;102169.28;1742931;81;21647;-74
2020/12/06 00:52:34;;;;;;;12.87;4.30;;;;;;;-7.98;62.21;102165.45;1686037;83;20206;-74
2020/12/06 00:55:02;;;;;;;12.67;4.40;;;;;;;-8.06;62.06;102163.68;1746611;81;21160;-74
2020/12/06 00:57:32;;;;;;;16.73;4.50;;;;;;;-8.06;62.36;102155.70;1704645;83;21610;-85
2020/12/06 01:00:00;;;;;;;12.35;4.28;;;;;;;-8.08;62.29;102158.92;1707922;84;21205;-74
2020/12/06 01:02:28;;;;;;;10.53;4.00;;;;;;;-8.12;62.21;102161.38;1688339;83;21287;-86
2020/12/06 01:04:57;;;;;;;9.60;3.97;;;;;;;-8.17;62.55;102154.95;1723346;81;21588;-75
2020/12/06 01:07:24;;;;;;;10.28;3.70;;;;;;;-8.18;62.47;102156.38;1704991;83;21132;-76
2020/12/06 01:09:54;;;;;;;12.17;3.73;;;;;;;-8.17;63.26;102159.44;1713333;82;21652;-75
2020/12/06 01:12:23;;;;;;;11.28;3.83;;;;;;;-8.19;62.61;102150.67;1692760;82;22269;-76
2020/12/06 01:14:51;;;;;;;10.87;3.80;;;;;;;-8.20;62.72;102155.61;1703764;83;21612;-75
2020/12/06 01:17:22;;;;;;;11.22;4.05;;;;;;;-8.20;62.94;102151.63;1686158;82;21166;-75
2020/12/06 01:19:51;;;;;;;10.47;4.00;;;;;;;-8.21;62.86;102153.42;1703467;82;21164;-86
2020/12/06 01:22:19;;;;;;;12.68;4.28;;;;;;;-8.21;62.67;102145.45;1708218;82;21157;-85
2020/12/06 01:24:47;;;;;;;8.48;3.80;;;;;;;-8.22;62.79;102142.89;1704805;83;21302;-89
2020/12/06 01:27:16;;;;;;;10.35;4.20;;;;;;;-8.20;62.69;102152.95;1707504;82;21273;-84
2020/12/06 01:29:44;;;;;;;9.50;3.90;;;;;;;-8.23;62.65;102144.69;1701640;83;21242;-77
2020/12/06 01:32:12;;;;;;;12.20;3.98;;;;;;;-8.26;62.45;102150.65;1719192;82;21628;-75
2020/12/06 01:34:40;;;;;;;11.08;4.37;;;;;;;-8.28;62.93;102159.17;1712407;82;21589;-84
2020/12/06 01:37:08;;;;;;;10.03;3.50;;;;;;;-8.31;62.97;102155.35;1710594;82;21349;-86
2020/12/06 01:39:36;;;;;;;13.15;4.67;;;;;;;-8.32;62.55;102152.33;1705799;82;21635;-75
2020/12/06 01:42:04;;;;;;;10.50;4.10;;;;;;;-8.34;62.68;102152.85;1749462;82;21129;-74
2020/12/06 01:44:31;;;;;;;9.73;4.17;;;;;;;-8.34;62.67;102152.39;1687464;83;21177;-75
2020/12/06 01:47:00;;;;;;;;;;;;;;;-8.32;62.59;102161.12;1691975;83;21706;-74
2020/12/06 01:49:38;;;;;;;11.50;3.93;;;;;;;-8.33;62.73;102158.56;1685053;82;20602;-76
2020/12/06 01:52:08;;;;;;;10.67;3.97;;;;;;;-8.37;62.61;102155.70;1712225;82;21121;-83
2020/12/06 01:54:36;;;;;;;11.88;3.62;;;;;;;-8.42;62.40;102159.44;1727644;81;21168;-82
2020/12/06 01:57:04;;;;;;;10.95;4.15;;;;;;;-8.43;62.92;102153.76;1686973;83;21183;-80
2020/12/06 01:59:32;;;;;;;11.93;4.12;;;;;;;-8.48;62.55;102151.81;1685420;83;21176;-86
2020/12/06 02:02:04;;;;;;;11.20;4.10;;;;;;;-8.49;62.71;102156.72;1672104;86;21180;-86
2020/12/06 02:04:32;;;;;;;12.27;3.93;;;;;;;-8.54;62.62;102153.45;1695714;83;21169;-76
2020/12/06 02:07:01;;;;;;;12.50;4.40;;;;;;;-8.56;63.06;102149.16;1681555;83;21201;-78
2020/12/06 02:09:31;;;;;;;10.50;4.20;;;;;;;-8.57;63.00;102149.63;1718480;81;21277;-78
2020/12/06 02:12:08;;;;;;;12.80;4.13;;;;;;;-8.58;62.71;102144.41;1700125;84;21177;-77
2020/12/06 02:14:37;;;;;;;13.37;4.20;;;;;;;-8.60;63.00;102139.16;1699308;83;21187;-79
2020/12/06 02:17:05;;;;;;;12.85;5.03;;;;;;;-8.60;62.94;102144.97;1700427;84;21199;-88
2020/12/06 02:19:32;;;;;;;15.50;4.75;;;;;;;-8.60;62.73;102148.45;1701793;83;21275;-77
2020/12/06 02:22:01;;;;;;;12.30;4.90;;;;;;;-8.62;62.95;102146.35;1708698;83;21680;-79
2020/12/06 02:24:29;;;;;;;12.90;4.55;;;;;;;-8.61;63.25;102140.58;1708211;84;21177;-80
2020/12/06 02:26:57;;;;;;;15.58;4.90;;;;;;;-8.67;63.49;102140.43;1705329;83;21203;-88
2020/12/06 02:29:25;;;;;;;13.08;4.75;;;;;;;-8.67;63.52;102143.55;1715977;82;21647;-87
2020/12/06 02:31:53;;;;;;;14.13;4.95;;;;;;;-8.68;63.90;102142.71;1678030;83;21579;-87
2020/12/06 02:34:21;;;;;;;14.78;4.67;;;;;;;-8.69;63.31;102139.66;1696491;84;21749;-89
2020/12/06 02:36:50;;;;;;;10.85;4.00;;;;;;;-8.70;63.77;102139.25;1700533;83;21174;-82
2020/12/06 02:39:19;;;;;;;11.77;4.80;;;;;;;-8.69;63.77;102139.66;1673876;83;21175;-87
2020/12/06 02:41:51;;;;;;;12.53;3.97;;;;;;;-8.68;63.74;102148.48;1695922;83;21626;-75
2020/12/06 02:44:18;;;;;;;11.80;4.23;;;;;;;-8.68;63.79;102145.83;1693018;83;21181;-88
2020/12/06 02:46:46;;;;;;;14.53;4.80;;;;;;;-8.68;63.54;102161.29;1707693;83;21658;-75
2020/12/06 02:49:15;;;;;;;12.55;4.60;;;;;;;-8.70;63.87;102163.14;1718615;83;21636;-82
2020/12/06 02:51:44;;;;;;;12.60;4.57;;;;;;;-8.70;63.59;102163.14;1698716;81;21399;-74
2020/12/06 02:54:11;;;;;;;10.72;4.53;;;;;;;-8.71;63.74;102161.91;1672978;83;21124;-76
2020/12/06 02:56:41;;;;;;;11.50;4.33;;;;;;;-8.73;64.09;102155.36;1722802;82;21596;-75
2020/12/06 02:59:10;;;;;;;11.27;4.53;;;;;;;-8.72;64.11;102154.41;1706925;82;21433;-75
2020/12/06 03:01:38;;;;;;;12.53;4.55;;;;;;;-8.73;64.26;102156.69;1731523;81;21211;-76
2020/12/06 03:04:05;;;;;;;14.58;4.97;;;;;;;-8.72;64.24;102157.06;1696344;83;21124;-87
2020/12/06 03:06:33;;;;;;;13.22;4.37;;;;;;;-8.72;64.16;102161.50;1723357;81;21192;-87
2020/12/06 03:09:01;;;;;;;12.30;4.40;;;;;;;-8.74;63.86;102156.75;1698608;83;21153;-89
2020/12/06 03:11:30;;;;;;;12.37;4.93;;;;;;;-8.77;64.05;102156.44;1693956;81;21196;-74
2020/12/06 03:13:58;;;;;;;12.95;4.97;;;;;;;-8.81;64.35;102160.66;1684749;83;21203;-87
2020/12/06 03:16:26;;;;;;;18.07;5.77;;;;;;;-8.82;64.34;102166.44;1698930;83;21351;-86
2020/12/06 03:18:54;;;;;;;12.58;4.50;;;;;;;-8.82;64.76;102159.80;1696934;83;21161;-88
2020/12/06 03:21:23;;;;;;;16.57;4.90;;;;;;;-8.81;64.38;102161.53;1713007;82;21173;-83
2020/12/06 03:23:51;;;;;;;13.10;5.03;;;;;;;-8.80;64.62;102159.73;1740096;80;21135;-85
2020/12/06 03:26:19;;;;;;;13.48;5.28;;;;;;;-8.81;64.65;102169.95;1706840;81;21148;-87
2020/12/06 03:28:47;;;;;;;12.78;5.05;;;;;;;-8.83;64.77;102166.06;1741300;81;21181;-85
2020/12/06 03:31:14;;;;;;;14.90;5.97;;;;;;;-8.84;65.24;102172.29;1708773;83;21164;-73
2020/12/06 03:33:42;;;;;;;14.73;5.47;;;;;;;-8.84;64.83;102166.98;1733701;83;21823;-83
2020/12/06 03:36:10;;;;;;;15.68;4.95;;;;;;;-8.84;65.38;102177.59;1694686;82;21228;-82
2020/12/06 03:38:38;;;;;;;15.03;6.22;;;;;;;-8.82;65.37;102174.86;1709394;83;21664;-82
2020/12/06 03:41:06;;;;;;;13.32;5.72;;;;;;;-8.87;65.44;102180.41;1688194;82;21614;-81
2020/12/06 03:43:34;;;;;;;17.45;5.75;;;;;;;-8.86;65.52;102176.83;1690904;84;21176;-82
2020/12/06 03:46:02;;;;;;;17.60;5.95;;;;;;;-8.87;65.50;102178.20;1709856;82;21156;-82
2020/12/06 03:48:30;;;;;;;14.00;5.37;;;;;;;-8.88;65.44;102178.70;1719799;83;21176;-75
2020/12/06 03:50:59;;;;;;;15.07;5.80;;;;;;;-8.90;65.91;102174.41;1705080;82;21260;-81
2020/12/06 03:53:27;;;;;;;;;;;;;;;-8.92;65.56;102177.12;1721627;83;21204;-85
2020/12/06 03:55:55;;;;;;;12.07;5.22;;;;;;;-8.93;65.90;102178.54;1711663;82;20188;-75
2020/12/06 03:58:23;;;;;;;17.35;6.35;;;;;;;-8.98;66.27;102177.45;1728425;83;21235;-75
2020/12/06 04:00:52;;;;;;;12.80;5.47;;;;;;;-9.02;66.29;102174.55;1738703;81;21151;-76
2020/12/06 04:03:20;;;;;;;14.58;5.35;;;;;;;-9.05;66.35;102177.34;1712626;83;21172;-76
2020/12/06 04:05:48;;;;;;;18.65;5.72;;;;;;;-9.07;66.42;102173.91;1674262;83;21921;-77
2020/12/06 04:08:18;;;;;;;17.25;6.33;;;;;;;-9.08;66.37;102182.80;1712966;81;21166;-87
2020/12/06 04:10:46;;;;;;;17.47;6.30;;;;;;;-9.07;66.66;102181.41;1723339;82;21151;-76
2020/12/06 04:13:14;;;;;;;18.25;6.72;;;;;;;-9.07;66.75;102186.72;1698561;82;21584;-76
2020/12/06 04:15:42;;;;;;;14.55;6.60;;;;;;;-9.06;67.19;102183.60;1690364;82;21141;-76
2020/12/06 04:18:11;;;;;;;17.87;6.50;;;;;;;-9.06;67.26;102180.45;1704892;82;22185;-75
2020/12/06 04:20:39;;;;;;;16.25;6.17;;;;;;;-9.05;66.98;102183.52;1713547;84;21275;-75
2020/12/06 04:23:07;;;;;;;17.73;6.70;;;;;;;-9.05;67.16;102178.67;1716607;83;21165;-76
2020/12/06 04:25:35;;;;;;;16.82;6.42;;;;;;;-9.06;67.83;102172.99;1705944;83;21175;-78
2020/12/06 04:28:03;;;;;;;13.38;6.03;;;;;;;-9.02;67.62;102178.98;1700347;82;21491;-86
2020/12/06 04:30:31;;;;;;;14.83;6.62;;;;;;;-8.98;67.63;102182.75;1702179;83;21191;-86
2020/12/06 04:32:59;;;;;;;18.85;6.40;;;;;;;-8.98;67.56;102181.43;1718285;82;21173;-76
2020/12/06 04:35:27;;;;;;;17.27;6.70;;;;;;;-8.97;67.67;102179.15;1711658;83;21148;-75
2020/12/06 04:37:55;;;;;;;13.43;5.83;;;;;;;-8.99;67.62;102179.70;1719553;81;21207;-76
2020/12/06 04:40:23;;;;;;;17.17;6.92;;;;;;;-9.01;68.00;102184.69;1678682;83;21214;-86
2020/12/06 04:42:51;;;;;;;16.75;6.70;;;;;;;-9.03;68.00;102182.13;1683190;82;21611;-85
2020/12/06 04:45:19;;;;;;;17.17;7.20;;;;;;;-9.02;68.46;102173.67;1701969;83;21117;-85
2020/12/06 04:47:54;;;;;;;18.57;7.30;;;;;;;-9.01;68.04;102182.04;1707979;79;21450;-75
2020/12/06 04:50:29;;;;;;;14.90;6.33;;;;;;;-9.03;68.19;102182.59;1658205;84;21849;-76
2020/12/06 04:52:58;;;;;;;17.00;6.17;;;;;;;-9.04;68.24;102180.40;1687099;84;21660;-76
2020/12/06 04:55:31;;;;;;;17.80;6.60;;;;;;;-9.05;68.23;102183.97;1696282;83;21671;-77
2020/12/06 04:58:00;;;;;;;14.10;6.33;;;;;;;-9.12;68.20;102190.52;1708188;83;21152;-82
2020/12/06 05:00:36;;;;;;;16.70;6.30;;;;;;;-9.15;68.56;102185.37;1681724;82;21678;-83
2020/12/06 05:03:10;;;;;;;15.70;6.33;;;;;;;-9.15;68.73;102186.69;1682855;83;21258;-84
2020/12/06 05:05:40;;;;;;;15.43;6.47;;;;;;;-9.17;68.81;102184.12;1693534;82;21627;-88
2020/12/06 05:08:12;;;;;;;18.33;6.67;;;;;;;-9.20;68.94;102182.08;1700601;83;21173;-88
2020/12/06 05:10:46;;;;;;;15.93;6.67;;;;;;;-9.18;69.24;102182.86;1709476;82;21172;-85
2020/12/06 05:13:16;;;;;;;18.27;7.27;;;;;;;-9.14;69.45;102187.09;1710007;83;21183;-86
2020/12/06 05:15:47;;;;;;;16.10;6.57;;;;;;;-9.13;68.99;102192.31;1713761;82;21129;-85
2020/12/06 05:18:15;;;;;;;16.13;6.40;;;;;;;-9.11;69.13;102194.91;1705279;83;21183;-83
2020/12/06 05:20:43;;;;;;;17.12;7.08;;;;;;;-9.12;68.90;102191.39;1684981;82;21176;-87
2020/12/06 05:23:12;;;;;;;16.73;6.58;;;;;;;-9.13;69.15;102191.45;1664723;83;21195;-85
2020/12/06 05:25:40;;;;;;;25.20;7.47;;;;;;;-9.12;68.94;102195.83;1668550;84;21174;-85
2020/12/06 05:28:09;;;;;;;18.20;6.90;;;;;;;-9.14;68.91;102194.59;1656366;83;21176;-77
2020/12/06 05:30:40;;;;;;;20.03;7.00;;;;;;;-9.12;68.86;102207.77;1690200;82;21707;-77
2020/12/06 05:33:10;;;;;;;18.77;6.50;;;;;;;-9.12;69.13;102209.09;1695379;83;21346;-85
2020/12/06 05:35:43;;;;;;;16.67;6.67;;;;;;;-9.12;68.77;102210.41;1720615;82;21186;-75
2020/12/06 05:38:12;;;;;;;18.90;6.90;;;;;;;-9.14;69.27;102214.48;1700917;83;21287;-76
2020/12/06 05:40:46;;;;;;;18.73;7.23;;;;;;;-9.14;68.84;102222.90;1732839;81;21291;-76
2020/12/06 05:43:16;;;;;;;17.67;6.97;;;;;;;-9.13;68.89;102223.27;1717427;81;21556;-75
2020/12/06 05:45:46;;;;;;;20.20;6.83;;;;;;;-9.13;68.64;102222.81;1678906;85;21639;-78
2020/12/06 05:48:14;;;;;;;18.27;7.10;;;;;;;-9.12;68.83;102220.56;1686276;84;21212;-76
2020/12/06 05:50:42;;;;;;;21.95;7.70;;;;;;;-9.10;68.71;102225.78;1708404;83;21174;-76
2020/12/06 05:53:10;;;;;;;;;;;;;;;-9.12;68.80;102226.33;1692553;82;21170;-76
2020/12/06 05:55:37;;;;;;;24.15;7.28;;;;;;;-9.11;68.96;102218.78;1695133;83;20533;-76
2020/12/06 05:58:05;;;;;;;16.60;6.87;;;;;;;-9.14;68.62;102224.22;1702875;82;21136;-76
2020/12/06 06:00:33;;;;;;;17.55;6.90;;;;;;;-9.12;68.93;102219.70;1713709;83;21228;-78
2020/12/06 06:03:01;;;;;;;22.52;7.10;;;;;;;-9.09;68.76;102223.53;1702018;83;21208;-78
2020/12/06 06:05:29;;;;;;;19.77;7.10;;;;;;;-9.07;68.66;102224.31;1685114;84;21278;-80
2020/12/06 06:07:59;;;;;;;16.97;7.33;;;;;;;-9.07;68.39;102226.50;1660039;84;21316;-77
2020/12/06 06:10:33;;;;;;;17.07;7.00;;;;;;;-9.03;68.65;102223.24;1659853;85;21206;-77
2020/12/06 06:13:02;;;;;;;19.97;7.37;;;;;;;-8.98;68.30;102221.68;1684820;83;21215;-78
2020/12/06 06:15:31;;;;;;;16.50;6.57;;;;;;;-8.93;68.17;102219.20;1685577;83;21186;-77
2020/12/06 06:18:00;;;;;;;17.33;6.33;;;;;;;-8.87;68.20;102228.16;1697679;83;21171;-84
2020/12/06 06:20:29;;;;;;;17.67;6.93;;;;;;;-8.84;68.02;102217.39;1696771;83;21793;-78
2020/12/06 06:22:58;;;;;;;18.33;6.87;;;;;;;-8.79;68.00;102218.48;1705198;83;21271;-75
2020/12/06 06:25:28;;;;;;;17.93;7.10;;;;;;;-8.75;67.84;102216.09;1686488;83;21722;-77
2020/12/06 06:27:57;;;;;;;18.30;6.63;;;;;;;-8.71;67.60;102220.29;1695740;83;21659;-77
2020/12/06 06:30:27;;;;;;;16.17;6.80;;;;;;;-8.69;67.68;102218.41;1654553;85;21161;-76
2020/12/06 06:32:55;;;;;;;17.77;7.28;;;;;;;-8.65;67.91;102226.63;1690193;82;21149;-75
2020/12/06 06:35:23;;;;;;;15.65;6.75;;;;;;;-8.63;67.65;102218.98;1692651;82;21167;-89
2020/12/06 06:37:50;;;;;;;17.73;7.30;;;;;;;-8.59;67.88;102228.95;1695359;83;21203;-86
2020/12/06 06:40:18;;;;;;;17.32;7.72;;;;;;;-8.58;67.36;102225.37;1713789;82;21196;-76
2020/12/06 06:42:46;;;;;;;;;;;;;;;-8.54;67.29;102220.28;1663294;83;21148;-75
2020/12/06 06:45:14;;;;;;;15.70;6.75;;;;;;;-8.52;67.41;102212.63;1698249;82;20251;-74
2020/12/06 06:47:42;;;;;;;;;;;;;;;-8.49;67.08;102215.12;1693291;83;21170;-75
2020/12/06 06:50:11;;;;;;;17.82;7.00;;;;;;;-8.46;67.41;102217.63;1652354;83;20187;-74
2020/12/06 06:52:42;;;;;;;19.37;7.43;;;;;;;-8.41;67.34;102216.92;1704515;83;21131;-75
2020/12/06 06:55:10;;;;;;;17.90;6.93;;;;;;;-8.35;66.94;102225.05;1727929;81;21130;-76
2020/12/06 06:57:41;;;;;;;20.97;7.73;;;;;;;-8.30;66.91;102215.50;1716744;83;21159;-74
2020/12/06 07:00:08;;;;;;;20.27;7.73;;;;;;;-8.23;66.71;102222.17;1724047;83;21708;-84
2020/12/06 07:02:38;;;;;;;18.32;7.00;;;;;;;-8.15;66.67;102227.94;1690450;82;21211;-76
2020/12/06 07:05:17;;;;;;;20.60;6.83;;;;;;;-8.07;67.19;102231.06;1713947;84;21173;-76
2020/12/06 07:07:51;;;;;;;18.13;6.00;;;;;;;-7.98;66.27;102235.87;1719007;81;21287;-83
2020/12/06 07:10:22;;;;;;;16.53;6.77;;;;;;;-7.95;65.85;102233.05;1713745;84;21149;-77
2020/12/06 07:12:56;;;;;;;18.63;6.33;;;;;;;-7.90;65.73;102233.66;1686362;82;21157;-81
2020/12/06 07:15:25;;;;;;;20.13;6.83;;;;;;;-7.84;65.98;102231.52;1710765;83;21138;-81
2020/12/06 07:17:54;;;;;;;22.30;7.77;;;;;;;-7.76;65.31;102232.44;1711436;82;21668;-79
2020/12/06 07:20:23;;;;;;;17.40;7.07;;;;;;;-7.73;64.95;102229.61;1713718;84;21129;-77
2020/12/06 07:22:55;;;;;;;18.93;7.53;;;;;;;-7.68;65.41;102232.02;1707576;82;21153;-81
2020/12/06 07:25:24;;;;;;;21.27;7.67;;;;;;;-7.64;64.90;102224.28;1706489;84;21140;-79
2020/12/06 07:32:31;;;;;;;18.17;6.47;;;;;;;-7.41;64.73;102222.53;1813885;77;22159;-76
2020/12/06 07:34:59;;;;;;;18.57;6.30;;;;;;;-7.42;64.38;102211.03;1754914;80;21199;-86
2020/12/06 07:37:27;;;;;;;17.40;5.95;;;;;;;-7.40;64.20;102214.45;1766007;78;21148;-87
2020/12/06 07:39:56;;;;;;;19.70;6.40;;;;;;;-7.30;63.96;102214.79;1769505;79;21271;-82
2020/12/06 07:42:27;;;;;;;16.52;6.47;;;;;;;-7.27;64.07;102211.50;1765341;80;21109;-87
2020/12/06 07:44:58;;;;;;;18.23;6.63;;;;;;;-7.21;63.53;102213.78;1752371;78;21182;-79
2020/12/06 07:47:26;;;;;;;13.83;5.67;;;;;;;-7.17;64.04;102215.34;1751451;81;21604;-77
2020/12/06 07:49:56;;;;;;;;;;;;;;;-7.11;64.01;102204.33;1763240;78;21172;-74
2020/12/06 07:52:29;;;;;;;17.43;6.63;;;;;;;-7.02;63.61;102207.42;1766741;79;20179;-87
2020/12/06 07:55:05;;;;;;;18.20;5.87;;;;;;;-6.96;63.70;102205.74;1758784;78;21172;-82
2020/12/06 07:57:49;;;;;;;19.70;6.73;;;;;;;-6.86;63.56;102198.94;1770957;80;21599;-76
2020/12/06 08:00:22;;;;;;;14.57;6.40;;;;;;;-6.76;63.75;102200.11;1721324;81;21147;-75
2020/12/06 08:02:58;;;;;;;16.67;6.47;;;;;;;-6.67;63.32;102192.89;1711086;83;21210;-81
2020/12/06 08:05:29;;;;;;;15.20;6.10;;;;;;;-6.58;63.33;102199.86;1715960;82;21833;-82
2020/12/06 08:08:08;;;;;;;14.80;5.97;;;;;;;-6.52;62.64;102204.83;1708472;83;21157;-75
2020/12/06 08:10:36;;;;;;;16.30;5.97;;;;;;;-6.44;62.52;102200.38;1687166;83;21637;-75
2020/12/06 08:13:10;;;;;;;20.85;6.55;;;;;;;-6.34;62.20;102206.86;1739524;82;21184;-85
2020/12/06 08:15:38;;;;;;;15.87;6.40;;;;;;;-6.26;61.76;102203.73;1718991;81;21280;-78
2020/12/06 08:18:14;;;;;;;16.63;6.33;;;;;;;-6.19;61.78;102205.92;1718183;82;21287;-87
2020/12/06 08:20:56;;;;;;;16.67;6.70;;;;;;;-6.14;61.07;102199.84;1725221;81;21234;-87
2020/12/06 08:23:37;;;;;;;16.80;6.73;;;;;;;-6.09;61.59;102197.75;1723002;82;21487;-87
2020/12/06 08:26:05;;;;;;;18.13;6.77;;;;;;;-6.01;61.37;102195.47;1726630;81;21215;-87
2020/12/06 08:28:34;;;;;;;15.67;6.70;;;;;;;-5.93;61.34;102194.52;1737765;81;21182;-77
2020/12/06 08:31:20;;;;;;;16.50;7.33;;;;;;;-5.86;61.18;102183.84;1725516;81;21127;-76
2020/12/06 08:33:49;;;;;;;24.30;7.60;;;;;;;-5.80;60.57;102171.44;1716019;83;21662;-77
2020/12/06 08:36:23;;;;;;;24.07;7.75;;;;;;;-5.68;61.29;102176.45;1694774;83;21571;-77
2020/12/06 08:38:51;;;;;;;20.13;6.53;;;;;;;-5.59;60.63;102169.69;1714238;83;21170;-78
2020/12/06 08:41:25;;;;;;;19.87;6.53;;;;;;;-5.60;59.99;102173.30;1719455;81;21730;-77
2020/12/06 08:44:02;;;;;;;20.23;7.77;;;;;;;-5.61;59.90;102167.58;1721290;82;21167;-87
2020/12/06 08:46:32;;;;;;;16.37;6.83;;;;;;;-5.60;59.73;102165.30;1713382;81;21184;-88
2020/12/06 08:49:01;;;;;;;16.43;7.07;;;;;;;-5.57;60.10;102165.11;1714173;82;21397;-77
2020/12/06 08:51:37;;;;;;;17.63;6.37;;;;;;;-5.53;59.83;102154.61;1725933;81;21204;-87
2020/12/06 08:54:07;;;;;;;16.77;6.37;;;;;;;-5.47;59.80;102152.89;1719280;82;21396;-76
2020/12/06 08:56:40;;;;;;;17.23;7.13;;;;;;;-5.44;60.08;102159.36;1732540;83;21168;-90
2020/12/06 08:59:13;;;;;;;14.27;6.20;;;;;;;-5.35;60.35;102160.95;1733587;81;21157;-75
2020/12/06 09:01:50;;;;;;;16.93;6.57;;;;;;;-5.23;59.42;102156.61;1722765;83;21534;-74
2020/12/06 09:04:18;;;;;;;14.37;6.77;;;;;;;-5.17;59.25;102158.88;1724936;81;21235;-76
2020/12/06 09:06:47;;;;;;;15.35;6.30;;;;;;;-5.12;59.10;102159.44;1722323;81;21141;-77
2020/12/06 09:09:15;;;;;;;17.87;7.05;;;;;;;-5.08;58.36;102160.09;1722187;81;21198;-78
2020/12/06 09:11:45;;;;;;;19.40;6.80;;;;;;;-5.09;58.51;102149.89;1722980;81;21147;-75
2020/12/06 09:14:13;;;;;;;15.85;6.10;;;;;;;-5.08;58.63;102152.09;1723391;81;21181;-83
2020/12/06 09:16:41;;;;;;;23.65;6.62;;;;;;;-5.10;58.66;102150.84;1723417;82;21137;-74
2020/12/06 09:19:09;;;;;;;16.05;6.22;;;;;;;-5.11;59.04;102157.16;1722385;81;21137;-74
2020/12/06 09:21:37;;;;;;;22.42;6.78;;;;;;;-5.09;58.54;102150.36;1724553;82;21247;-75
2020/12/06 09:24:05;;;;;;;;;;;;;;;-5.11;58.62;102145.14;1722451;81;21361;-79
2020/12/06 09:26:33;;;;;;;19.55;6.80;;;;;;;-5.09;59.13;102147.22;1725258;81;20177;-77
2020/12/06 09:29:01;;;;;;;17.07;7.03;;;;;;;-5.02;59.25;102142.31;1719976;81;21180;-77
2020/12/06 09:31:29;;;;;;;19.07;7.03;;;;;;;-4.95;59.12;102137.80;1714808;81;21172;-77
2020/12/06 09:33:57;;;;;;;19.00;6.67;;;;;;;-4.85;58.89;102139.36;1714218;81;21608;-78
2020/12/06 09:36:25;;;;;;;15.63;6.95;;;;;;;-4.78;58.73;102138.84;1726179;81;21296;-75
2020/12/06 09:38:54;;;;;;;15.55;6.17;;;;;;;-4.70;58.75;102128.49;1717463;81;21708;-77
2020/12/06 09:41:22;;;;;;;15.53;5.95;;;;;;;-4.63;58.41;102135.12;1717894;81;21094;-78
2020/12/06 09:43:50;;;;;;;21.40;6.70;;;;;;;-4.61;58.47;102139.04;1721508;81;21180;-76
2020/12/06 09:46:21;;;;;;;17.00;6.75;;;;;;;-4.59;58.39;102131.77;1715971;81;21169;-81
2020/12/06 09:48:50;;;;;;;19.40;7.47;;;;;;;-4.60;58.64;102132.72;1714151;82;21181;-76
2020/12/06 09:51:20;;;;;;;15.50;6.53;;;;;;;-4.61;58.90;102134.56;1720774;81;21290;-74
2020/12/06 09:53:49;;;;;;;16.17;6.37;;;;;;;-4.58;59.04;102124.14;1720885;82;21201;-75
2020/12/06 09:56:17;;;;;;;19.73;7.17;;;;;;;-4.52;58.81;102132.57;1713524;81;21220;-77
2020/12/06 09:58:45;;;;;;;15.05;6.65;;;;;;;-4.45;58.65;102131.66;1732528;81;21251;-78
2020/12/06 10:01:13;;;;;;;16.60;6.50;;;;;;;-4.39;59.12;102127.70;1715098;81;21319;-84
2020/12/06 10:03:41;;;;;;;22.48;6.40;;;;;;;-4.36;59.18;102129.70;1721698;83;21149;-83
2020/12/06 10:06:09;;;;;;;17.45;6.67;;;;;;;-4.35;59.00;102110.52;1720151;81;21687;-79
2020/12/06 10:08:37;;;;;;;18.90;7.17;;;;;;;-4.34;59.67;102118.41;1719447;83;21753;-78
2020/12/06 10:11:05;;;;;;;18.70;6.80;;;;;;;-4.29;59.48;102113.59;1706625;81;21216;-80
2020/12/06 10:13:35;;;;;;;23.87;7.33;;;;;;;-4.23;59.45;102119.00;1729752;81;21177;-88
2020/12/06 10:16:03;;;;;;;17.67;7.20;;;;;;;-4.21;59.52;102114.39;1726789;81;21307;-82
2020/12/06 10:18:32;;;;;;;21.48;7.40;;;;;;;-4.19;59.76;102117.80;1731923;81;21267;-83
2020/12/06 10:21:11;;;;;;;18.33;7.60;;;;;;;-4.14;59.60;102130.36;1710499;83;21430;-88
2020/12/06 10:23:39;;;;;;;;;;;;;;;-4.12;59.81;102123.08;1750059;80;21223;-86
2020/12/06 10:26:07;;;;;;;20.75;8.60;;;;;;;-4.10;59.33;102127.87;1737381;80;20214;-81
2020/12/06 10:28:35;;;;;;;19.05;6.55;;;;;;;-4.11;60.00;102126.14;1740822;80;21622;-84
2020/12/06 10:31:03;;;;;;;20.15;7.47;;;;;;;-4.08;59.93;102117.91;1727222;80;21268;-88
2020/12/06 10:33:32;;;;;;;16.93;6.97;;;;;;;-4.04;60.16;102122.06;1728632;81;21204;-88
2020/12/06 10:36:00;;;;;;;18.67;7.75;;;;;;;-3.95;60.61;102120.09;1729860;81;21164;-75
2020/12/06 10:38:28;;;;;;;17.57;7.08;;;;;;;-3.89;60.37;102116.95;1732035;81;21644;-76
2020/12/06 10:40:55;;;;;;;26.80;8.60;;;;;;;-3.80;60.90;102124.81;1726017;81;21199;-77
2020/12/06 10:43:23;;;;;;;20.20;7.62;;;;;;;-3.75;60.10;102121.31;1725742;81;21161;-75
2020/12/06 10:45:51;;;;;;;16.77;6.92;;;;;;;-3.74;60.72;102117.18;1726972;82;21141;-78
2020/12/06 10:48:19;;;;;;;18.15;6.95;;;;;;;-3.76;60.39;102109.75;1719079;81;21305;-75
2020/12/06 10:50:52;;;;;;;20.40;7.60;;;;;;;-3.77;60.08;102109.41;1718390;82;21194;-77
2020/12/06 10:53:20;;;;;;;15.70;6.80;;;;;;;-3.82;59.99;102099.52;1720179;81;21180;-75
2020/12/06 10:55:48;;;;;;;18.27;7.37;;;;;;;-3.84;60.27;102101.42;1708694;82;21160;-76
2020/12/06 10:58:15;;;;;;;16.32;7.10;;;;;;;-3.85;60.45;102097.06;1717822;81;21159;-79
2020/12/06 11:00:46;;;;;;;19.37;8.10;;;;;;;-3.82;60.46;102093.31;1731394;81;21161;-80
2020/12/06 11:03:14;;;;;;;20.57;7.60;;;;;;;-3.83;60.86;102099.61;1700728;82;21160;-77
2020/12/06 11:05:42;;;;;;;18.98;7.58;;;;;;;-3.82;60.84;102096.84;1725035;81;21192;-78
2020/12/06 11:08:10;;;;;;;17.42;6.25;;;;;;;-3.78;61.09;102100.99;1725942;81;21617;-79
2020/12/06 11:10:38;;;;;;;15.28;7.05;;;;;;;-3.75;60.89;102105.27;1727092;81;21281;-80
2020/12/06 11:13:06;;;;;;;22.62;7.83;;;;;;;-3.77;60.86;102095.16;1734541;81;21206;-79
2020/12/06 11:15:34;;;;;;;20.37;6.58;;;;;;;-3.79;61.03;102097.10;1721042;81;21161;-77
2020/12/06 11:18:03;;;;;;;16.17;7.10;;;;;;;-3.81;60.97;102094.52;1742367;82;21133;-79
2020/12/06 11:20:32;;;;;;;;;;;;;;;-3.80;61.27;102099.39;1720206;81;21342;-76
2020/12/06 11:22:59;;;;;;;17.32;6.50;;;;;;;-3.78;61.35;102096.12;1719307;83;20245;-76
2020/12/06 11:25:27;;;;;;;22.25;8.38;;;;;;;-3.78;61.44;102094.30;1716633;81;21224;-78
2020/12/06 11:27:56;;;;;;;21.40;7.72;;;;;;;-3.77;61.08;102093.35;1731213;81;21191;-77
2020/12/06 11:30:24;;;;;;;;;;;;;;;-3.79;61.34;102084.56;1728394;81;21140;-78
2020/12/06 11:32:52;;;;;;;22.25;7.12;;;;;;;-3.78;61.70;102092.97;1719641;81;20497;-77